Time;durP1;ratioP1;P1;durP2;ratioP2;P2;SDS_P1;SDS_P2;PMS_P1;PMS_P2;Temp;Humidity;BMP_temperature;BMP_pressure;BME280_temperature;BME280_humidity;BME280_pressure;Samples;Min_cycle;Max_cycle;Signal;HPM_P1;HPM_P2
2024/02/03 00:00:15;;;;;;;3.58;3.20;;;;;;;2.64;100.00;98626.63;5035502;28;20448;-79
2024/02/03 00:02:41;;;;;;;3.42;3.03;;;;;;;2.59;100.00;98634.19;5016074;28;20449;-79
2024/02/03 00:05:07;;;;;;;3.03;2.80;;;;;;;2.54;100.00;98632.09;5015658;28;20393;-79
2024/02/03 00:07:34;;;;;;;3.00;2.70;;;;;;;2.48;100.00;98630.13;5015802;28;20488;-79
2024/02/03 00:10:00;;;;;;;5.25;3.42;;;;;;;2.45;100.00;98621.81;5018685;28;20515;-79
2024/02/03 00:12:28;;;;;;;3.92;3.53;;;;;;;2.39;100.00;98618.09;5036673;28;20404;-79
2024/02/03 00:14:56;;;;;;;3.92;3.45;;;;;;;2.34;100.00;98615.97;5029132;28;20400;-79
2024/02/03 00:17:22;;;;;;;3.53;3.22;;;;;;;2.31;100.00;98611.09;5017807;28;20479;-79
2024/02/03 00:19:48;;;;;;;4.05;3.33;;;;;;;2.28;100.00;98605.38;5032267;28;20412;-79
2024/02/03 00:22:15;;;;;;;4.25;3.65;;;;;;;2.28;100.00;98606.19;5021410;28;20401;-79
2024/02/03 00:24:41;;;;;;;4.47;3.30;;;;;;;2.24;100.00;98593.66;5015963;28;20570;-79
2024/02/03 00:27:07;;;;;;;4.63;3.63;;;;;;;2.23;100.00;98586.81;5015991;28;20404;-79
2024/02/03 00:29:34;;;;;;;4.32;3.33;;;;;;;2.21;100.00;98594.81;5016601;28;20406;-79
2024/02/03 00:32:02;;;;;;;3.20;2.90;;;;;;;2.20;100.00;98601.00;5016614;28;20405;-79
2024/02/03 00:34:28;;;;;;;3.60;3.10;;;;;;;2.15;100.00;98589.44;5021766;28;20482;-79
2024/02/03 00:36:54;;;;;;;2.85;2.65;;;;;;;2.10;100.00;98591.75;5022183;28;20667;-78
2024/02/03 00:39:20;;;;;;;2.93;2.63;;;;;;;2.06;100.00;98595.66;5021838;28;20496;-78
2024/02/03 00:41:46;;;;;;;3.15;2.85;;;;;;;2.01;100.00;98590.94;5022418;28;20412;-78
2024/02/03 00:44:15;;;;;;;3.05;2.78;;;;;;;1.98;100.00;98590.44;5023347;28;20413;-78
2024/02/03 00:46:41;;;;;;;4.50;3.90;;;;;;;1.94;100.00;98590.81;5023669;28;20453;-78
2024/02/03 00:49:08;;;;;;;4.75;4.25;;;;;;;1.93;100.00;98599.63;5031096;28;20404;-78
2024/02/03 00:51:34;;;;;;;4.85;3.83;;;;;;;1.91;100.00;98606.78;5024816;28;20450;-78
2024/02/03 00:54:01;;;;;;;4.00;3.60;;;;;;;1.88;100.00;98614.16;5017181;28;20405;-78
2024/02/03 00:56:27;;;;;;;4.07;3.40;;;;;;;1.86;100.00;98619.53;5016717;28;20428;-78
2024/02/03 00:58:53;;;;;;;4.90;3.60;;;;;;;1.80;100.00;98611.56;5016490;28;20411;-78
2024/02/03 01:01:19;;;;;;;4.37;3.50;;;;;;;1.75;100.00;98619.88;5016880;28;20412;-78
2024/02/03 01:03:45;;;;;;;3.50;3.20;;;;;;;1.70;100.00;98613.50;5017214;28;20462;-78
2024/02/03 01:06:13;;;;;;;3.50;3.20;;;;;;;1.67;100.00;98614.66;5017007;28;20496;-78
2024/02/03 01:08:39;;;;;;;3.50;3.20;;;;;;;1.62;100.00;98618.72;5016862;28;20415;-78
2024/02/03 01:11:05;;;;;;;3.35;3.05;;;;;;;1.58;100.00;98612.22;5017265;28;20416;-79
2024/02/03 01:13:31;;;;;;;3.53;3.22;;;;;;;1.57;100.00;98608.81;5017346;28;20418;-78
2024/02/03 01:15:58;;;;;;;3.90;3.23;;;;;;;1.55;100.00;98605.53;5017480;28;20516;-79
2024/02/03 01:18:24;;;;;;;3.38;3.08;;;;;;;1.53;100.00;98607.47;5017871;28;20442;-78
2024/02/03 01:20:50;;;;;;;3.45;3.15;;;;;;;1.51;100.00;98610.25;5028373;28;20437;-78
2024/02/03 01:23:18;;;;;;;3.22;2.80;;;;;;;1.50;100.00;98618.25;5036402;28;20399;-78
2024/02/03 01:25:44;;;;;;;3.90;3.25;;;;;;;1.48;100.00;98612.38;5036562;28;20940;-78
2024/02/03 01:28:10;;;;;;;3.15;2.85;;;;;;;1.48;100.00;98620.22;5036407;28;20730;-78
2024/02/03 01:30:37;;;;;;;3.72;3.15;;;;;;;1.45;100.00;98621.34;5036219;28;20415;-79
2024/02/03 01:33:03;;;;;;;4.00;3.60;;;;;;;1.43;100.00;98614.66;5036608;28;20407;-78
2024/02/03 01:35:30;;;;;;;4.60;3.70;;;;;;;1.41;100.00;98609.63;5036263;28;20502;-78
2024/02/03 01:37:56;;;;;;;4.50;3.72;;;;;;;1.39;100.00;98627.22;5036623;28;20454;-79
2024/02/03 01:40:26;;;;;;;3.67;3.35;;;;;;;1.36;100.00;98619.69;5036065;28;20414;-78
2024/02/03 01:42:59;;;;;;;3.83;3.50;;;;;;;1.35;100.00;98620.69;5036426;28;20526;-78
2024/02/03 01:45:26;;;;;;;4.18;3.60;;;;;;;1.34;100.00;98623.47;5036028;28;20443;-79
2024/02/03 01:47:53;;;;;;;4.10;3.63;;;;;;;1.35;100.00;98618.09;5036021;28;20422;-79
2024/02/03 01:50:20;;;;;;;4.20;3.80;;;;;;;1.32;100.00;98601.94;5035604;28;20510;-79
2024/02/03 01:52:46;;;;;;;3.85;3.50;;;;;;;1.29;100.00;98604.84;5039506;28;20435;-79
2024/02/03 01:55:13;;;;;;;3.58;3.28;;;;;;;1.26;100.00;98602.59;5039287;28;20910;-79
2024/02/03 01:57:44;;;;;;;3.70;3.28;;;;;;;1.23;100.00;98601.13;5040843;28;20448;-79
2024/02/03 02:00:12;;;;;;;3.00;2.70;;;;;;;1.23;100.00;98600.28;5039009;28;20443;-79
2024/02/03 02:02:38;;;;;;;2.80;2.60;;;;;;;1.20;100.00;98601.47;5039072;28;20406;-78
2024/02/03 02:05:04;;;;;;;3.37;3.07;;;;;;;1.17;100.00;98593.94;5038368;28;20394;-79
2024/02/03 02:07:30;;;;;;;3.50;3.20;;;;;;;1.16;100.00;98594.91;5038524;28;20464;-79
2024/02/03 02:09:57;;;;;;;3.60;3.30;;;;;;;1.15;100.00;98591.50;5037071;28;20772;-77
2024/02/03 02:12:23;;;;;;;3.50;3.20;;;;;;;1.13;100.00;98588.22;5037430;28;20407;-79
2024/02/03 02:14:50;;;;;;;3.45;3.15;;;;;;;1.12;100.00;98586.63;5037823;28;20395;-79
2024/02/03 02:17:16;;;;;;;5.05;3.83;;;;;;;1.15;100.00;98588.06;5038870;28;20456;-79
2024/02/03 02:19:42;;;;;;;3.90;3.47;;;;;;;1.14;100.00;98596.88;5038436;28;20446;-79
2024/02/03 02:22:10;;;;;;;3.50;3.20;;;;;;;1.14;100.00;98599.47;5038084;28;20472;-79
2024/02/03 02:24:36;;;;;;;3.50;3.20;;;;;;;1.12;100.00;98596.22;5039077;28;20403;-77
2024/02/03 02:27:03;;;;;;;3.47;3.17;;;;;;;1.11;100.00;98600.63;5036841;28;20826;-78
2024/02/03 02:29:29;;;;;;;3.30;3.00;;;;;;;1.09;100.00;98597.34;5034996;28;20406;-79
2024/02/03 02:31:56;;;;;;;3.08;2.78;;;;;;;1.07;100.00;98595.88;5035101;28;20768;-77
2024/02/03 02:34:22;;;;;;;3.00;2.70;;;;;;;1.05;100.00;98590.81;5034262;28;20430;-77
2024/02/03 02:36:48;;;;;;;3.30;3.00;;;;;;;1.03;100.00;98584.16;5034349;28;20403;-77
2024/02/03 02:39:15;;;;;;;3.10;2.80;;;;;;;1.01;100.00;98588.72;5034579;28;20399;-77
2024/02/03 02:41:41;;;;;;;3.90;2.95;;;;;;;1.02;100.00;98585.13;5034649;28;20483;-77
2024/02/03 02:44:08;;;;;;;3.72;3.10;;;;;;;0.99;100.00;98580.22;5043008;28;20423;-79
2024/02/03 02:46:34;;;;;;;3.63;3.33;;;;;;;0.98;100.00;98581.19;5040159;28;20437;-79
2024/02/03 02:49:01;;;;;;;3.60;3.30;;;;;;;0.98;100.00;98586.41;5034895;28;20400;-79
2024/02/03 02:51:27;;;;;;;3.88;3.47;;;;;;;0.98;100.00;98578.59;5034805;28;20429;-77
2024/02/03 02:53:53;;;;;;;5.75;3.70;;;;;;;0.99;100.00;98575.00;5034751;28;20402;-78
2024/02/03 02:56:21;;;;;;;4.00;3.45;;;;;;;1.00;100.00;98574.84;5034085;28;20417;-77
2024/02/03 02:58:47;;;;;;;3.83;3.50;;;;;;;1.01;100.00;98573.88;5033757;28;20433;-78
2024/02/03 03:01:13;;;;;;;3.50;3.20;;;;;;;1.03;100.00;98574.53;5036989;28;20475;-78
2024/02/03 03:03:39;;;;;;;3.40;3.10;;;;;;;1.02;100.00;98578.13;5036529;28;20402;-79
2024/02/03 03:06:05;;;;;;;3.35;3.05;;;;;;;1.02;100.00;98570.31;5037411;28;20864;-78
2024/02/03 03:08:31;;;;;;;3.47;3.10;;;;;;;1.02;100.00;98566.88;5038667;28;20880;-79
2024/02/03 03:10:58;;;;;;;3.60;3.05;;;;;;;1.00;100.00;98574.03;5039090;28;20445;-78
2024/02/03 03:13:25;;;;;;;2.97;2.78;;;;;;;0.97;100.00;98575.19;5038833;28;20482;-78
2024/02/03 03:15:51;;;;;;;4.97;2.70;;;;;;;0.93;100.00;98576.47;5038622;28;20410;-78
2024/02/03 03:18:17;;;;;;;3.15;2.85;;;;;;;0.91;100.00;98580.22;5039001;28;20407;-78
2024/02/03 03:20:43;;;;;;;3.28;2.97;;;;;;;0.86;100.00;98580.69;5039510;28;20411;-79
2024/02/03 03:23:10;;;;;;;3.90;3.50;;;;;;;0.85;100.00;98579.06;5039021;28;20415;-78
2024/02/03 03:25:37;;;;;;;5.95;4.10;;;;;;;0.80;100.00;98583.94;5038054;28;20406;-78
2024/02/03 03:28:03;;;;;;;5.05;4.43;;;;;;;0.79;100.00;98584.91;5037924;28;20560;-78
2024/02/03 03:30:31;;;;;;;4.68;4.18;;;;;;;0.79;100.00;98582.31;5038255;28;20426;-78
2024/02/03 03:32:57;;;;;;;4.70;3.92;;;;;;;0.81;100.00;98577.78;5038094;28;20510;-78
2024/02/03 03:35:25;;;;;;;4.38;3.67;;;;;;;0.83;100.00;98582.81;5037528;28;20399;-79
2024/02/03 03:37:51;;;;;;;3.65;3.30;;;;;;;0.82;100.00;98589.81;5037892;28;20402;-78
2024/02/03 03:40:17;;;;;;;4.40;4.00;;;;;;;0.83;100.00;98586.22;5037972;28;20403;-79
2024/02/03 03:42:45;;;;;;;4.03;3.63;;;;;;;0.84;100.00;98581.81;5038005;28;20491;-79
2024/02/03 03:45:12;;;;;;;3.55;3.25;;;;;;;0.82;100.00;98576.78;5037417;28;20443;-78
2024/02/03 03:47:39;;;;;;;5.63;3.50;;;;;;;0.79;100.00;98574.50;5049783;28;20406;-78
2024/02/03 03:50:06;;;;;;;3.55;3.25;;;;;;;0.79;100.00;98569.28;5049463;28;20767;-79
2024/02/03 03:52:33;;;;;;;3.80;3.40;;;;;;;0.76;100.00;98564.38;5036864;28;20414;-78
2024/02/03 03:55:00;;;;;;;4.15;3.50;;;;;;;0.76;100.00;98565.19;5036153;28;20465;-78
2024/02/03 03:57:26;;;;;;;3.40;3.10;;;;;;;0.74;100.00;98561.97;5035567;28;20437;-77
2024/02/03 03:59:52;;;;;;;3.50;3.20;;;;;;;0.73;100.00;98562.94;5036911;28;20411;-78
2024/02/03 04:02:19;;;;;;;3.40;3.10;;;;;;;0.72;100.00;98569.13;5037333;28;20396;-78
2024/02/03 04:04:46;;;;;;;3.55;3.20;;;;;;;0.71;100.00;98567.47;5036897;28;20395;-78
2024/02/03 04:07:12;;;;;;;3.63;3.22;;;;;;;0.68;100.00;98565.19;5036463;28;20410;-79
2024/02/03 04:09:40;;;;;;;3.30;2.97;;;;;;;0.67;100.00;98567.97;5036259;28;20410;-79
2024/02/03 04:12:06;;;;;;;3.50;3.20;;;;;;;0.68;100.00;98577.38;5035863;28;20461;-79
2024/02/03 04:14:32;;;;;;;3.93;3.40;;;;;;;0.67;100.00;98567.97;5036228;28;20444;-79
2024/02/03 04:16:59;;;;;;;3.78;3.47;;;;;;;0.65;100.00;98572.50;5037383;28;20406;-79
2024/02/03 04:19:25;;;;;;;4.55;3.63;;;;;;;0.64;100.00;98568.28;5036525;28;20441;-79
2024/02/03 04:21:52;;;;;;;3.58;3.28;;;;;;;0.62;100.00;98576.25;5036522;28;20487;-79
2024/02/03 04:24:18;;;;;;;3.60;3.22;;;;;;;0.61;100.00;98574.59;5035913;28;20496;-78
2024/02/03 04:26:44;;;;;;;3.50;3.20;;;;;;;0.59;100.00;98573.97;5035884;28;20485;-79
2024/02/03 04:29:11;;;;;;;3.83;3.42;;;;;;;0.56;100.00;98579.47;5036569;28;20481;-79
2024/02/03 04:31:41;;;;;;;3.95;3.60;;;;;;;0.54;100.00;98583.22;5036513;28;20851;-79
2024/02/03 04:34:07;;;;;;;3.90;3.50;;;;;;;0.51;100.00;98586.16;5036675;28;20431;-79
2024/02/03 04:36:33;;;;;;;3.90;3.47;;;;;;;0.49;100.00;98588.09;5035530;28;20437;-79
2024/02/03 04:39:00;;;;;;;4.57;3.78;;;;;;;0.49;100.00;98581.09;5036627;28;20422;-79
2024/02/03 04:41:27;;;;;;;4.97;4.05;;;;;;;0.48;100.00;98587.28;5035409;28;20486;-79
2024/02/03 04:43:53;;;;;;;4.68;4.18;;;;;;;0.46;100.00;98581.41;5036414;28;20890;-79
2024/02/03 04:46:19;;;;;;;5.43;4.30;;;;;;;0.47;100.00;98580.44;5036171;28;20402;-79
2024/02/03 04:48:45;;;;;;;4.30;3.90;;;;;;;0.44;100.00;98580.75;5037819;28;20395;-79
2024/02/03 04:51:12;;;;;;;4.23;3.83;;;;;;;0.39;100.00;98589.03;5037545;28;20418;-78
2024/02/03 04:53:39;;;;;;;5.33;4.07;;;;;;;0.38;100.00;98591.78;5036214;28;20399;-79
2024/02/03 04:56:08;;;;;;;4.13;3.72;;;;;;;0.34;100.00;98593.91;5034820;28;20391;-79
2024/02/03 04:58:35;;;;;;;3.97;3.25;;;;;;;0.36;100.00;98601.56;5035271;28;20510;-79
2024/02/03 05:01:02;;;;;;;4.60;3.88;;;;;;;0.33;100.00;98607.06;5034650;28;20461;-79
2024/02/03 05:03:28;;;;;;;4.65;4.10;;;;;;;0.32;100.00;98610.63;5024782;28;20399;-79
2024/02/03 05:05:54;;;;;;;5.00;4.07;;;;;;;0.31;100.00;98598.59;5034598;28;20449;-79
2024/02/03 05:08:20;;;;;;;5.07;4.15;;;;;;;0.30;100.00;98602.97;5049553;28;20400;-79
2024/02/03 05:10:46;;;;;;;4.90;4.40;;;;;;;0.29;100.00;98584.94;5038714;28;20419;-79
2024/02/03 05:13:14;;;;;;;5.20;4.20;;;;;;;0.30;100.00;98586.56;5035338;28;20406;-79
2024/02/03 05:15:40;;;;;;;5.13;4.20;;;;;;;0.27;100.00;98585.09;5035563;28;20464;-78
2024/02/03 05:18:06;;;;;;;5.57;3.95;;;;;;;0.26;100.00;98587.84;5034238;28;20395;-76
2024/02/03 05:20:32;;;;;;;4.72;3.90;;;;;;;0.24;100.00;98600.19;5031238;28;20494;-76
2024/02/03 05:22:59;;;;;;;6.03;4.23;;;;;;;0.19;100.00;98599.84;5031680;28;20579;-76
2024/02/03 05:25:25;;;;;;;5.05;4.47;;;;;;;0.17;100.00;98607.81;5032085;28;20430;-76
2024/02/03 05:27:51;;;;;;;7.95;5.35;;;;;;;0.13;100.00;98603.06;5035420;28;20758;-76
2024/02/03 05:30:18;;;;;;;8.82;5.85;;;;;;;0.12;100.00;98591.03;5036316;28;20510;-79
2024/02/03 05:32:44;;;;;;;7.47;5.50;;;;;;;0.13;100.00;98600.47;5035826;28;20521;-76
2024/02/03 05:35:11;;;;;;;6.55;5.20;;;;;;;0.13;100.00;98603.06;5034691;28;20975;-76
2024/02/03 05:37:37;;;;;;;7.27;5.43;;;;;;;0.14;100.00;98612.53;5035403;28;20398;-76
2024/02/03 05:40:04;;;;;;;6.00;4.80;;;;;;;0.14;100.00;98615.13;5035734;28;20440;-76
2024/02/03 05:42:30;;;;;;;6.10;4.85;;;;;;;0.12;100.00;98619.66;5036218;28;20475;-76
2024/02/03 05:44:57;;;;;;;7.28;5.40;;;;;;;0.10;100.00;98617.22;5035913;28;20399;-78
2024/02/03 05:47:25;;;;;;;8.05;5.90;;;;;;;0.12;100.00;98609.25;5040114;28;20398;-78
2024/02/03 05:49:51;;;;;;;7.45;6.07;;;;;;;0.17;100.00;98607.00;5040762;28;20988;-78
2024/02/03 05:52:18;;;;;;;9.52;6.43;;;;;;;0.23;100.00;98603.75;5040317;28;20933;-78
2024/02/03 05:54:44;;;;;;;9.70;7.43;;;;;;;0.31;100.00;98604.63;5039511;28;20441;-78
2024/02/03 05:57:12;;;;;;;11.87;7.70;;;;;;;0.41;100.00;98598.47;5039469;28;20424;-78
2024/02/03 05:59:38;;;;;;;17.98;10.40;;;;;;;0.52;100.00;98593.00;5038877;28;20440;-78
2024/02/03 06:02:04;;;;;;;17.98;10.45;;;;;;;0.62;100.00;98604.09;5039580;28;20759;-79
2024/02/03 06:04:32;;;;;;;17.23;9.95;;;;;;;0.72;100.00;98605.59;5044968;28;20399;-81
2024/02/03 06:06:58;;;;;;;17.52;9.82;;;;;;;0.81;100.00;98603.81;5044055;28;20406;-82
2024/02/03 06:09:25;;;;;;;15.85;9.82;;;;;;;0.87;100.00;98610.19;5042332;28;21038;-82
2024/02/03 06:11:51;;;;;;;20.42;11.25;;;;;;;0.92;100.00;98602.69;5045981;28;20521;-81
2024/02/03 06:14:17;;;;;;;16.52;8.73;;;;;;;0.93;100.00;98610.34;5045083;28;20407;-82
2024/02/03 06:16:44;;;;;;;22.50;11.65;;;;;;;0.96;100.00;98612.66;5043647;28;20391;-81
2024/02/03 06:19:10;;;;;;;24.20;12.15;;;;;;;0.97;100.00;98609.09;5044409;28;20394;-80
2024/02/03 06:21:37;;;;;;;19.63;10.88;;;;;;;0.93;100.00;98605.16;5043141;28;20431;-81
2024/02/03 06:24:04;;;;;;;23.98;12.30;;;;;;;0.96;100.00;98604.03;5042537;28;20415;-81
2024/02/03 06:26:31;;;;;;;21.25;10.80;;;;;;;0.93;100.00;98614.75;5040976;28;20399;-82
2024/02/03 06:28:57;;;;;;;27.95;13.20;;;;;;;0.91;100.00;98611.47;5043315;28;20403;-81
2024/02/03 06:31:23;;;;;;;26.35;13.20;;;;;;;0.90;100.00;98609.88;5044126;28;20414;-81
2024/02/03 06:33:49;;;;;;;24.25;12.57;;;;;;;0.86;100.00;98606.75;5038986;28;20399;-81
2024/02/03 06:36:16;;;;;;;22.25;12.38;;;;;;;0.84;100.00;98616.53;5036768;28;20404;-83
2024/02/03 06:38:43;;;;;;;17.48;10.05;;;;;;;0.79;100.00;98616.19;5042022;28;20399;-81
2024/02/03 06:41:10;;;;;;;20.50;11.25;;;;;;;0.72;100.00;98621.22;5042157;28;20411;-81
2024/02/03 06:43:40;;;;;;;24.45;12.00;;;;;;;0.66;100.00;98627.06;5038997;28;20426;-81
2024/02/03 06:46:06;;;;;;;22.85;11.50;;;;;;;0.62;100.00;98628.34;5041770;28;20467;-82
2024/02/03 06:48:32;;;;;;;26.08;13.48;;;;;;;0.59;100.00;98631.28;5037209;28;20419;-82
2024/02/03 06:50:58;;;;;;;23.63;12.40;;;;;;;0.57;100.00;98624.59;5036701;28;20462;-82
2024/02/03 06:53:25;;;;;;;21.87;11.77;;;;;;;0.54;100.00;98622.28;5032999;28;20424;-81
2024/02/03 06:55:52;;;;;;;21.83;10.65;;;;;;;0.51;100.00;98623.44;5027891;28;20441;-82
2024/02/03 06:58:18;;;;;;;20.73;10.95;;;;;;;0.51;100.00;98628.66;5038843;28;20410;-82
2024/02/03 07:00:44;;;;;;;22.52;11.68;;;;;;;0.51;100.00;98620.00;5039292;28;20462;-82
2024/02/03 07:03:11;;;;;;;21.80;11.20;;;;;;;0.51;100.00;98630.44;5038780;28;20438;-81
2024/02/03 07:05:39;;;;;;;25.27;12.30;;;;;;;0.53;100.00;98631.06;5039776;28;20402;-81
2024/02/03 07:08:06;;;;;;;28.98;13.50;;;;;;;0.53;100.00;98629.28;5041186;28;20443;-80
2024/02/03 07:10:32;;;;;;;28.60;12.80;;;;;;;0.56;100.00;98643.78;5044748;28;20482;-81
2024/02/03 07:13:00;;;;;;;28.75;14.57;;;;;;;0.58;100.00;98626.22;5036938;28;20758;-81
2024/02/03 07:15:26;;;;;;;27.13;13.75;;;;;;;0.61;100.00;98631.09;5036057;28;20407;-80
2024/02/03 07:17:52;;;;;;;22.35;11.77;;;;;;;0.62;100.00;98630.94;5032916;28;20653;-80
2024/02/03 07:20:19;;;;;;;19.13;10.80;;;;;;;0.62;100.00;98623.13;5035944;28;20493;-80
2024/02/03 07:22:45;;;;;;;29.23;13.07;;;;;;;0.61;100.00;98631.09;5041182;28;20468;-80
2024/02/03 07:25:12;;;;;;;30.45;14.85;;;;;;;0.64;100.00;98628.19;5039663;28;20405;-81
2024/02/03 07:27:38;;;;;;;28.27;13.70;;;;;;;0.68;100.00;98627.72;5033554;28;20416;-83
2024/02/03 07:30:07;;;;;;;29.75;14.05;;;;;;;0.80;100.00;98630.03;5041003;28;20415;-81
2024/02/03 07:32:33;;;;;;;37.88;16.75;;;;;;;0.97;100.00;98629.94;5040673;28;20425;-81
2024/02/03 07:34:59;;;;;;;38.33;17.02;;;;;;;1.21;100.00;98630.94;5041285;28;20483;-80
2024/02/03 07:37:25;;;;;;;35.00;18.13;;;;;;;1.48;100.00;98628.84;5043325;28;20937;-80
2024/02/03 07:39:51;;;;;;;33.67;16.55;;;;;;;1.72;100.00;98628.03;5041597;28;20438;-81
2024/02/03 07:42:18;;;;;;;37.88;18.80;;;;;;;1.98;100.00;98627.81;5045790;28;20525;-82
2024/02/03 07:44:44;;;;;;;30.52;15.65;;;;;;;2.22;100.00;98632.19;5038619;28;20481;-82
2024/02/03 07:47:12;;;;;;;29.77;15.07;;;;;;;2.43;100.00;98635.06;5040128;28;20406;-82
2024/02/03 07:49:38;;;;;;;32.38;15.45;;;;;;;2.64;100.00;98626.63;5038694;28;20391;-77
2024/02/03 07:52:05;;;;;;;44.65;18.30;;;;;;;2.78;100.00;98631.19;5034166;28;20493;-79
2024/02/03 07:54:32;;;;;;;29.20;14.23;;;;;;;2.96;100.00;98629.09;5037913;28;20498;-80
2024/02/03 07:56:58;;;;;;;28.77;12.88;;;;;;;3.04;100.00;98630.84;5037837;28;20403;-80
2024/02/03 07:59:26;;;;;;;29.55;13.70;;;;;;;3.14;100.00;98631.47;5036716;28;20733;-77
2024/02/03 08:01:52;;;;;;;24.30;11.73;;;;;;;3.25;100.00;98641.50;5035780;28;20399;-77
2024/02/03 08:04:19;;;;;;;18.83;10.00;;;;;;;3.34;100.00;98637.03;5037421;28;20403;-82
2024/02/03 08:06:45;;;;;;;19.03;9.30;;;;;;;3.44;100.00;98632.41;5036530;28;20406;-77
2024/02/03 08:09:11;;;;;;;14.15;8.25;;;;;;;3.54;100.00;98626.91;5035417;28;20407;-77
2024/02/03 08:11:38;;;;;;;18.85;10.30;;;;;;;3.62;100.00;98630.28;5034094;28;20421;-77
2024/02/03 08:14:04;;;;;;;16.90;9.73;;;;;;;3.70;100.00;98624.97;5034374;28;20487;-77
2024/02/03 08:16:30;;;;;;;18.27;10.23;;;;;;;3.80;100.00;98625.56;5034752;28;20450;-78
2024/02/03 08:18:56;;;;;;;15.77;9.10;;;;;;;3.90;100.00;98627.94;5031769;28;20979;-78
2024/02/03 08:21:24;;;;;;;11.18;7.43;;;;;;;3.96;100.00;98621.97;5032199;28;20395;-77
2024/02/03 08:23:50;;;;;;;9.33;6.60;;;;;;;4.01;100.00;98622.25;5033230;28;20494;-77
2024/02/03 08:26:16;;;;;;;8.63;6.20;;;;;;;4.08;100.00;98631.00;5032536;28;20806;-77
2024/02/03 08:28:42;;;;;;;10.70;6.90;;;;;;;4.13;100.00;98638.34;5031923;28;20436;-77
2024/02/03 08:31:09;;;;;;;8.20;6.10;;;;;;;4.18;100.00;98631.56;5033941;28;20419;-78
2024/02/03 08:33:36;;;;;;;7.72;5.78;;;;;;;4.24;100.00;98625.59;5028402;28;20886;-78
2024/02/03 08:36:02;;;;;;;9.40;6.13;;;;;;;4.32;100.00;98629.13;5034131;28;20417;-78
2024/02/03 08:38:29;;;;;;;7.30;5.57;;;;;;;4.38;100.00;98629.22;5033352;28;20947;-78
2024/02/03 08:40:55;;;;;;;7.72;5.90;;;;;;;4.43;100.00;98634.75;5028612;28;20524;-78
2024/02/03 08:43:22;;;;;;;8.10;6.07;;;;;;;4.50;100.00;98634.84;5033797;28;20435;-78
2024/02/03 08:45:48;;;;;;;7.40;5.38;;;;;;;4.55;100.00;98638.53;5033922;28;20462;-78
2024/02/03 08:48:14;;;;;;;6.10;4.93;;;;;;;4.59;100.00;98638.97;5035230;28;20403;-77
2024/02/03 08:50:40;;;;;;;7.38;4.82;;;;;;;4.64;100.00;98636.63;5034764;28;20891;-78
2024/02/03 08:53:07;;;;;;;7.28;5.15;;;;;;;4.66;100.00;98643.31;5034394;28;20456;-78
2024/02/03 08:55:35;;;;;;;7.18;5.28;;;;;;;4.68;100.00;98628.22;5034006;28;20403;-78
2024/02/03 08:58:01;;;;;;;5.80;4.60;;;;;;;4.73;100.00;98626.84;5035239;28;20482;-78
2024/02/03 09:00:27;;;;;;;8.93;6.45;;;;;;;4.76;100.00;98623.84;5033607;28;20470;-78
2024/02/03 09:02:53;;;;;;;8.18;5.72;;;;;;;4.78;100.00;98630.56;5034635;28;20406;-78
2024/02/03 09:05:19;;;;;;;6.68;5.00;;;;;;;4.81;100.00;98635.41;5033830;28;20453;-78
2024/02/03 09:07:46;;;;;;;6.00;4.80;;;;;;;4.84;100.00;98642.13;5034058;28;20906;-78
2024/02/03 09:10:12;;;;;;;7.37;5.70;;;;;;;4.84;100.00;98648.19;5034862;28;20435;-79
2024/02/03 09:12:40;;;;;;;8.15;6.20;;;;;;;4.84;100.00;98645.56;5034405;28;20399;-78
2024/02/03 09:15:06;;;;;;;7.25;5.18;;;;;;;4.88;100.00;98649.44;5034363;28;20890;-79
2024/02/03 09:17:32;;;;;;;6.13;4.95;;;;;;;4.91;100.00;98651.69;5036769;28;20438;-79
2024/02/03 09:19:59;;;;;;;6.23;4.80;;;;;;;4.93;100.00;98654.94;5036339;28;20427;-80
2024/02/03 09:22:25;;;;;;;5.65;4.47;;;;;;;4.94;100.00;98643.47;5036005;28;20391;-80
2024/02/03 09:24:51;;;;;;;5.40;4.22;;;;;;;4.95;100.00;98650.34;5035660;28;20418;-79
2024/02/03 09:27:17;;;;;;;5.10;4.03;;;;;;;4.98;100.00;98643.91;5035881;28;20489;-79
2024/02/03 09:29:45;;;;;;;4.85;4.35;;;;;;;5.00;100.00;98639.28;5036452;28;21018;-80
2024/02/03 09:32:11;;;;;;;5.47;4.25;;;;;;;5.01;100.00;98646.97;5035737;28;20488;-77
2024/02/03 09:34:37;;;;;;;4.50;4.00;;;;;;;5.03;100.00;98639.75;5034768;28;20771;-77
2024/02/03 09:37:04;;;;;;;9.48;6.47;;;;;;;4.99;100.00;98645.53;5035213;28;20480;-78
2024/02/03 09:39:30;;;;;;;6.63;4.80;;;;;;;5.02;100.00;98653.84;5034662;28;20395;-78
2024/02/03 09:41:57;;;;;;;5.78;4.38;;;;;;;5.04;100.00;98651.03;5034937;28;20410;-79
2024/02/03 09:44:24;;;;;;;10.70;6.35;;;;;;;4.98;100.00;98649.97;5035861;28;20468;-80
2024/02/03 09:46:52;;;;;;;6.93;5.20;;;;;;;5.04;100.00;98648.41;5036273;28;20414;-80
2024/02/03 09:49:18;;;;;;;6.65;5.00;;;;;;;5.04;100.00;98651.03;5038181;28;20415;-77
2024/02/03 09:51:47;;;;;;;6.28;4.30;;;;;;;5.06;100.00;98660.34;5037252;28;20419;-77
2024/02/03 09:54:13;;;;;;;5.18;4.28;;;;;;;5.07;100.00;98659.34;5036282;28;20880;-78
2024/02/03 09:56:43;;;;;;;5.65;4.38;;;;;;;5.10;100.00;98657.38;5036779;28;20902;-79
2024/02/03 09:59:10;;;;;;;4.97;3.95;;;;;;;5.11;100.00;98651.94;5037361;28;20387;-77
2024/02/03 10:01:36;;;;;;;9.20;6.30;;;;;;;5.04;100.00;98651.84;5037124;28;20423;-79
2024/02/03 10:04:04;;;;;;;8.98;6.30;;;;;;;5.09;100.00;98658.34;5036682;28;20426;-80
2024/02/03 10:06:30;;;;;;;14.13;6.20;;;;;;;5.07;100.00;98650.66;5035603;28;20401;-80
2024/02/03 10:08:56;;;;;;;8.60;5.70;;;;;;;5.10;100.00;98647.69;5034483;28;20486;-80
2024/02/03 10:11:22;;;;;;;5.78;4.65;;;;;;;5.18;100.00;98650.19;5036487;28;20421;-76
2024/02/03 10:13:49;;;;;;;4.40;3.67;;;;;;;5.26;100.00;98644.03;5038618;28;20934;-78
2024/02/03 10:16:15;;;;;;;4.90;3.90;;;;;;;5.31;100.00;98641.63;5038025;28;20485;-80
2024/02/03 10:18:41;;;;;;;6.55;4.80;;;;;;;5.35;100.00;98642.88;5037715;28;20486;-77
2024/02/03 10:21:09;;;;;;;5.68;4.15;;;;;;;5.43;100.00;98640.94;5038548;28;20427;-80
2024/02/03 10:23:35;;;;;;;5.78;4.10;;;;;;;5.50;100.00;98640.19;5039152;28;20399;-80
2024/02/03 10:26:01;;;;;;;4.28;3.50;;;;;;;5.56;100.00;98642.09;5038344;28;20399;-80
2024/02/03 10:28:28;;;;;;;6.63;4.18;;;;;;;5.61;100.00;98637.91;5038014;28;20880;-77
2024/02/03 10:30:55;;;;;;;8.65;5.15;;;;;;;5.61;100.00;98632.63;5037761;28;20844;-80
2024/02/03 10:33:22;;;;;;;6.82;4.68;;;;;;;5.75;100.00;98641.44;5038134;28;20468;-78
2024/02/03 10:35:49;;;;;;;4.95;4.07;;;;;;;5.93;100.00;98633.13;5038526;28;20406;-77
2024/02/03 10:38:16;;;;;;;5.88;4.68;;;;;;;6.03;100.00;98634.41;5037135;28;20415;-79
2024/02/03 10:40:43;;;;;;;5.68;4.60;;;;;;;6.11;100.00;98628.19;5037658;28;20477;-78
2024/02/03 10:43:17;;;;;;;5.32;4.55;;;;;;;6.16;100.00;98624.00;5038302;28;20395;-80
2024/02/03 10:45:47;;;;;;;5.70;4.18;;;;;;;6.19;100.00;98617.53;5038092;28;20728;-79
2024/02/03 10:48:18;;;;;;;6.28;4.50;;;;;;;6.16;100.00;98623.19;5038096;28;20720;-79
2024/02/03 10:50:48;;;;;;;4.65;4.15;;;;;;;6.17;100.00;98627.44;5037966;28;20411;-79
2024/02/03 10:53:21;;;;;;;5.03;4.07;;;;;;;6.21;100.00;98618.97;5038905;28;20458;-79
2024/02/03 10:55:55;;;;;;;4.60;3.57;;;;;;;6.28;100.00;98610.31;5039228;28;20805;-78
2024/02/03 10:58:24;;;;;;;5.22;3.95;;;;;;;6.34;100.00;98606.91;5040182;28;20398;-79
2024/02/03 11:00:52;;;;;;;4.95;3.80;;;;;;;6.42;100.00;98610.19;5039405;28;20472;-79
2024/02/03 11:03:20;;;;;;;5.47;4.10;;;;;;;6.47;100.00;98613.03;5039679;28;20391;-79
2024/02/03 11:05:47;;;;;;;7.13;4.22;;;;;;;6.52;100.00;98608.03;5038236;28;20399;-79
2024/02/03 11:08:14;;;;;;;4.05;3.58;;;;;;;6.57;100.00;98604.81;5038058;28;20875;-79
2024/02/03 11:10:41;;;;;;;5.57;3.92;;;;;;;6.53;100.00;98604.41;5038184;28;20418;-79
2024/02/03 11:13:19;;;;;;;5.43;4.20;;;;;;;6.57;100.00;98599.53;5037135;28;20455;-79
2024/02/03 11:15:46;;;;;;;4.18;3.50;;;;;;;6.63;100.00;98595.31;5037232;28;20395;-79
2024/02/03 11:18:13;;;;;;;3.80;3.38;;;;;;;6.68;100.00;98595.56;5038517;28;20471;-80
2024/02/03 11:20:40;;;;;;;3.72;3.17;;;;;;;6.81;100.00;98604.31;5037897;28;20399;-79
2024/02/03 11:23:13;;;;;;;5.90;3.60;;;;;;;6.88;100.00;98593.81;5040380;28;20392;-80
2024/02/03 11:25:44;;;;;;;4.03;3.00;;;;;;;6.96;100.00;98596.25;5039748;28;20397;-81